Skelmorlie, United Kingdom
Current Conditions -  °F | °C
As of 10:20 PM on Monday 20 Oct 2014 (Local Time) from EGPF Reporting Station
Broken Clouds Broken Clouds  
Wind Chill: 55°   Ceiling: 1200
Heat Index: 55°   Visibility: 6mi
Dew Point: 52°   Wind: 20mph
Humidity: 88%   Direction: 190°S
Pressure: 29.44"   Gusts: NA
Location:  55.87°N, 4.88°W
Report Text: EGPF 202120Z AUTO 19017KT 9999 BKN012 13/11 Q0997
Loading
Personal Weather Stations






























Interactive Weather Map
Tropical Storm Tracking
New forecast layout! Learn more

10-Day Weather Forecast

Advertisements
Track Severe Weather on mobile